Grnwood, Indiana
Current Conditions -  °F | °C
As of 5:23 AM on Monday 26 Jan 2015 (Local Time) from KIND Reporting Station
Overcast Overcast  
Wind Chill:   Ceiling: 3900
Heat Index: 20°   Visibility: 10mi
Dew Point: 14°   Wind: 12mph
Humidity: 78%   Direction: 10°N
Pressure: 29.91"   Gusts: NA
Location:  39.5883°N, 86.07°W
Report Text: KIND 261023Z 01010KT 10SM SCT026 OVC039 M07/M10 A2991 RMK AO2 T10671100
Loading
Personal Weather Stations






























Interactive Weather Map New forecast layout! Learn more

10-Day Weather Forecast

Advertisements
Track Severe Weather on mobile